Time;durP1;ratioP1;P1;durP2;ratioP2;P2;SDS_P1;SDS_P2;PMS_P1;PMS_P2;Temp;Humidity;BMP_temperature;BMP_pressure;BME280_temperature;BME280_humidity;BME280_pressure;Samples;Min_cycle;Max_cycle;Signal;HPM_P1;HPM_P2
2023/03/21 00:01:51;;;;;;;;;;;;;;;;;;4927243;29;19918;-84
2023/03/21 00:04:16;;;;;;;;;;;;;;;;;;4930512;29;19923;-84
2023/03/21 00:06:42;;;;;;;;;;;;;;;;;;4928792;29;19927;-83
2023/03/21 00:09:07;;;;;;;;;;;;;;;;;;4930131;29;19919;-84
2023/03/21 00:11:32;;;;;;;;;;;;;;;;;;4926520;29;19915;-84
2023/03/21 00:14:01;;;;;;;;;;;;;;;;;;4929697;29;19942;-84
2023/03/21 00:16:29;;;;;;;;;;;;;;;;;;4937985;29;19942;-84
2023/03/21 00:18:54;;;;;;;;;;;;;;;;;;4931125;29;19923;-84
2023/03/21 00:21:19;;;;;;;;;;;;;;;;;;4939014;29;19926;-84
2023/03/21 00:23:45;;;;;;;;;;;;;;;;;;4927902;29;20082;-84
2023/03/21 00:26:10;;;;;;;;;;;;;;;;;;4931588;29;19915;-84
2023/03/21 00:28:36;;;;;;;;;;;;;;;;;;4929598;29;19920;-83
2023/03/21 00:31:01;;;;;;;;;;;;;;;;;;4941336;29;20316;-84
2023/03/21 00:33:26;;;;;;;;;;;;;;;;;;4930953;29;20350;-84
2023/03/21 00:35:52;;;;;;;;;;;;;;;;;;4931878;29;19930;-84
2023/03/21 00:38:17;;;;;;;;;;;;;;;;;;4926718;29;20457;-84
2023/03/21 00:40:42;;;;;;;;;;;;;;;;;;4937548;29;19970;-84
2023/03/21 00:43:07;;;;;;;;;;;;;;;;;;4933462;29;19925;-84
2023/03/21 00:45:32;;;;;;;;;;;;;;;;;;4934031;29;19971;-84
2023/03/21 00:47:58;;;;;;;;;;;;;;;;;;4926303;29;19931;-84
2023/03/21 00:50:23;;;;;;;;;;;;;;;;;;4927685;29;19914;-84
2023/03/21 00:52:48;;;;;;;;;;;;;;;;;;4925759;29;20414;-84
2023/03/21 00:55:13;;;;;;;;;;;;;;;;;;4927988;29;19915;-84
2023/03/21 00:57:38;;;;;;;;;;;;;;;;;;4926502;29;19919;-84
2023/03/21 01:00:06;;;;;;;;;;;;;;;;;;4927134;29;19919;-84
2023/03/21 01:02:31;;;;;;;;;;;;;;;;;;4926952;29;19939;-84
2023/03/21 01:04:56;;;;;;;;;;;;;;;;;;4926093;29;19927;-84
2023/03/21 01:07:21;;;;;;;;;;;;;;;;;;4933704;29;19939;-84
2023/03/21 01:09:47;;;;;;;;;;;;;;;;;;4925146;29;19927;-83
2023/03/21 01:12:12;;;;;;;;;;;;;;;;;;4925858;29;19921;-84
2023/03/21 01:14:37;;;;;;;;;;;;;;;;;;4934209;29;20460;-84
2023/03/21 01:17:02;;;;;;;;;;;;;;;;;;4926884;29;20411;-84
2023/03/21 01:19:28;;;;;;;;;;;;;;;;;;4928402;29;19967;-84
2023/03/21 01:21:53;;;;;;;;;;;;;;;;;;4925768;29;20256;-84
2023/03/21 01:24:18;;;;;;;;;;;;;;;;;;4925164;29;19903;-83
2023/03/21 01:26:43;;;;;;;;;;;;;;;;;;4924839;29;19966;-84
2023/03/21 01:29:11;;;;;;;;;;;;;;;;;;4921635;29;20309;-84
2023/03/21 01:31:36;;;;;;;;;;;;;;;;;;4922155;29;19919;-83
2023/03/21 01:34:04;;;;;;;;;;;;;;;;;;4918340;29;20483;-84
2023/03/21 01:36:29;;;;;;;;;;;;;;;;;;4925981;29;19903;-84
2023/03/21 01:38:54;;;;;;;;;;;;;;;;;;4933112;29;20371;-84
2023/03/21 01:41:19;;;;;;;;;;;;;;;;;;4927777;29;19923;-84
2023/03/21 01:43:44;;;;;;;;;;;;;;;;;;4923678;29;19992;-84
2023/03/21 01:46:09;;;;;;;;;;;;;;;;;;4928351;29;19925;-84
2023/03/21 01:48:35;;;;;;;;;;;;;;;;;;4925812;29;19919;-84
2023/03/21 01:51:00;;;;;;;;;;;;;;;;;;4938375;29;19919;-84
2023/03/21 01:53:28;;;;;;;;;;;;;;;;;;4924647;29;19915;-83
2023/03/21 01:55:54;;;;;;;;;;;;;;;;;;4924117;29;19919;-84
2023/03/21 01:58:19;;;;;;;;;;;;;;;;;;4929747;29;19915;-84
2023/03/21 02:00:44;;;;;;;;;;;;;;;;;;4925064;29;19915;-84
2023/03/21 02:03:10;;;;;;;;;;;;;;;;;;4942295;29;20076;-84
2023/03/21 02:05:35;;;;;;;;;;;;;;;;;;4924453;29;19926;-84
2023/03/21 02:08:00;;;;;;;;;;;;;;;;;;4928027;29;19926;-84
2023/03/21 02:10:26;;;;;;;;;;;;;;;;;;4951844;29;19926;-84
2023/03/21 02:12:53;;;;;;;;;;;;;;;;;;4931944;29;20335;-84
2023/03/21 02:15:19;;;;;;;;;;;;;;;;;;4929162;29;19926;-84
2023/03/21 02:17:44;;;;;;;;;;;;;;;;;;4922799;29;19954;-84
2023/03/21 02:20:10;;;;;;;;;;;;;;;;;;4926602;29;19918;-84
2023/03/21 02:22:35;;;;;;;;;;;;;;;;;;4924680;29;19903;-84
2023/03/21 02:25:00;;;;;;;;;;;;;;;;;;4933239;29;19947;-84
2023/03/21 02:27:26;;;;;;;;;;;;;;;;;;4927254;29;19992;-84
2023/03/21 02:29:51;;;;;;;;;;;;;;;;;;4923084;29;19934;-84
2023/03/21 02:32:16;;;;;;;;;;;;;;;;;;4928614;29;19939;-84
2023/03/21 02:34:41;;;;;;;;;;;;;;;;;;4926513;29;19919;-84
2023/03/21 02:37:06;;;;;;;;;;;;;;;;;;4932638;29;19955;-84
2023/03/21 02:39:31;;;;;;;;;;;;;;;;;;4924843;29;19938;-84
2023/03/21 02:41:57;;;;;;;;;;;;;;;;;;4924156;29;19919;-84
2023/03/21 02:44:22;;;;;;;;;;;;;;;;;;4929886;29;19932;-84
2023/03/21 02:46:47;;;;;;;;;;;;;;;;;;4926087;29;19919;-83
2023/03/21 02:49:12;;;;;;;;;;;;;;;;;;4924184;29;19923;-84
2023/03/21 02:51:37;;;;;;;;;;;;;;;;;;4923717;29;19953;-83
2023/03/21 02:54:03;;;;;;;;;;;;;;;;;;4922338;29;19923;-84
2023/03/21 02:56:30;;;;;;;;;;;;;;;;;;4925001;29;19915;-84
2023/03/21 02:58:55;;;;;;;;;;;;;;;;;;4924062;29;19923;-84
2023/03/21 03:01:20;;;;;;;;;;;;;;;;;;4923570;29;19935;-84
2023/03/21 03:03:46;;;;;;;;;;;;;;;;;;4921689;29;19915;-84
2023/03/21 03:06:11;;;;;;;;;;;;;;;;;;4924990;29;20357;-84
2023/03/21 03:08:36;;;;;;;;;;;;;;;;;;4925130;29;19934;-84
2023/03/21 03:11:03;;;;;;;;;;;;;;;;;;4920583;29;19974;-84
2023/03/21 03:13:28;;;;;;;;;;;;;;;;;;4927342;29;19919;-84
2023/03/21 03:15:53;;;;;;;;;;;;;;;;;;4926646;29;19974;-84
2023/03/21 03:18:18;;;;;;;;;;;;;;;;;;4924756;29;19916;-84
2023/03/21 03:20:45;;;;;;;;;;;;;;;;;;4922647;29;19915;-84
2023/03/21 03:23:10;;;;;;;;;;;;;;;;;;4921838;29;20148;-84
2023/03/21 03:25:35;;;;;;;;;;;;;;;;;;4916996;29;20353;-84
2023/03/21 03:28:00;;;;;;;;;;;;;;;;;;4925538;29;19947;-84
2023/03/21 03:30:26;;;;;;;;;;;;;;;;;;4923850;29;19911;-84
2023/03/21 03:32:51;;;;;;;;;;;;;;;;;;4924639;29;20394;-84
2023/03/21 03:35:16;;;;;;;;;;;;;;;;;;4926836;29;19915;-84
2023/03/21 03:37:42;;;;;;;;;;;;;;;;;;4925850;29;19986;-84
2023/03/21 03:40:07;;;;;;;;;;;;;;;;;;4930563;29;19946;-84
2023/03/21 03:42:32;;;;;;;;;;;;;;;;;;4942741;29;19919;-85
2023/03/21 03:44:57;;;;;;;;;;;;;;;;;;4926430;29;19926;-84
2023/03/21 03:47:23;;;;;;;;;;;;;;;;;;4931719;29;20208;-84
2023/03/21 03:49:48;;;;;;;;;;;;;;;;;;4926146;29;19950;-84
2023/03/21 03:52:13;;;;;;;;;;;;;;;;;;4930074;29;19919;-84
2023/03/21 03:54:38;;;;;;;;;;;;;;;;;;4930774;29;20063;-84
2023/03/21 03:57:04;;;;;;;;;;;;;;;;;;4927079;29;19930;-84
2023/03/21 03:59:29;;;;;;;;;;;;;;;;;;4928415;29;19919;-84
2023/03/21 04:01:54;;;;;;;;;;;;;;;;;;4927312;29;19929;-84
2023/03/21 04:04:21;;;;;;;;;;;;;;;;;;4931978;29;19939;-84
2023/03/21 04:06:50;;;;;;;;;;;;;;;;;;4930114;29;19954;-84
2023/03/21 04:09:15;;;;;;;;;;;;;;;;;;4926719;29;19974;-84
2023/03/21 04:11:40;;;;;;;;;;;;;;;;;;4924589;29;19915;-84
2023/03/21 04:14:06;;;;;;;;;;;;;;;;;;4928384;29;19923;-84
2023/03/21 04:16:31;;;;;;;;;;;;;;;;;;4946361;29;19958;-84
2023/03/21 04:18:56;;;;;;;;;;;;;;;;;;4941206;29;19926;-84
2023/03/21 04:21:21;;;;;;;;;;;;;;;;;;4925948;29;20202;-84
2023/03/21 04:23:47;;;;;;;;;;;;;;;;;;4923841;29;19979;-84
2023/03/21 04:26:12;;;;;;;;;;;;;;;;;;4916595;29;20286;-87
2023/03/21 04:28:38;;;;;;;;;;;;;;;;;;4928335;29;19919;-86
2023/03/21 04:31:03;;;;;;;;;;;;;;;;;;4909849;29;19915;-87
2023/03/21 04:33:29;;;;;;;;;;;;;;;;;;4912149;29;20034;-86
2023/03/21 04:35:57;;;;;;;;;;;;;;;;;;4908954;29;19957;-86
2023/03/21 04:38:23;;;;;;;;;;;;;;;;;;4906912;29;19923;-85
2023/03/21 04:40:48;;;;;;;;;;;;;;;;;;4911671;29;19987;-86
2023/03/21 04:43:13;;;;;;;;;;;;;;;;;;4909917;29;19966;-86
2023/03/21 04:45:38;;;;;;;;;;;;;;;;;;4923051;29;19958;-86
2023/03/21 04:48:04;;;;;;;;;;;;;;;;;;4912180;29;19979;-86
2023/03/21 04:50:30;;;;;;;;;;;;;;;;;;4905027;29;19958;-86
2023/03/21 04:52:55;;;;;;;;;;;;;;;;;;4924249;29;19919;-86
2023/03/21 04:55:21;;;;;;;;;;;;;;;;;;4912025;29;20388;-87
2023/03/21 04:57:46;;;;;;;;;;;;;;;;;;4907291;29;19916;-86
2023/03/21 05:00:15;;;;;;;;;;;;;;;;;;4911720;29;19915;-87
2023/03/21 05:02:40;;;;;;;;;;;;;;;;;;4922573;29;19919;-88
2023/03/21 05:05:05;;;;;;;;;;;;;;;;;;4911520;29;19922;-86
2023/03/21 05:07:31;;;;;;;;;;;;;;;;;;4908740;29;20344;-87
2023/03/21 05:09:56;;;;;;;;;;;;;;;;;;4907625;29;19930;-86
2023/03/21 05:12:21;;;;;;;;;;;;;;;;;;4908974;29;19927;-86
2023/03/21 05:14:47;;;;;;;;;;;;;;;;;;4910173;29;20374;-86
2023/03/21 05:17:14;;;;;;;;;;;;;;;;;;4909271;29;19926;-86
2023/03/21 05:19:40;;;;;;;;;;;;;;;;;;4904854;29;19923;-87
2023/03/21 05:22:05;;;;;;;;;;;;;;;;;;4910983;29;19927;-87
2023/03/21 05:24:30;;;;;;;;;;;;;;;;;;4907849;29;19938;-86
2023/03/21 05:27:01;;;;;;;;;;;;;;;;;;4910233;29;20362;-86
2023/03/21 05:29:26;;;;;;;;;;;;;;;;;;4907676;29;19997;-87
2023/03/21 05:31:51;;;;;;;;;;;;;;;;;;4910400;29;19962;-86
2023/03/21 05:34:17;;;;;;;;;;;;;;;;;;4906847;29;20424;-86
2023/03/21 05:36:42;;;;;;;;;;;;;;;;;;4904272;29;19923;-86
2023/03/21 05:39:07;;;;;;;;;;;;;;;;;;4903268;29;19923;-86
2023/03/21 05:41:32;;;;;;;;;;;;;;;;;;4904550;29;20398;-87
2023/03/21 05:43:57;;;;;;;;;;;;;;;;;;4903308;29;20108;-87
2023/03/21 05:46:22;;;;;;;;;;;;;;;;;;4909374;29;19971;-86
2023/03/21 05:48:48;;;;;;;;;;;;;;;;;;4900828;29;20357;-88
2023/03/21 05:51:13;;;;;;;;;;;;;;;;;;4903044;29;19919;-86
2023/03/21 05:53:38;;;;;;;;;;;;;;;;;;4904733;29;19922;-87
2023/03/21 05:56:03;;;;;;;;;;;;;;;;;;4910192;29;20366;-86
2023/03/21 05:58:29;;;;;;;;;;;;;;;;;;4906547;29;20514;-86
2023/03/21 06:00:54;;;;;;;;;;;;;;;;;;4908699;29;19915;-87
2023/03/21 06:03:19;;;;;;;;;;;;;;;;;;4908701;29;20286;-86
2023/03/21 06:05:45;;;;;;;;;;;;;;;;;;4919613;29;20002;-86
2023/03/21 06:08:10;;;;;;;;;;;;;;;;;;4913109;29;19926;-87
2023/03/21 06:10:35;;;;;;;;;;;;;;;;;;4934871;29;19962;-87
2023/03/21 06:13:00;;;;;;;;;;;;;;;;;;4915767;29;20074;-86
2023/03/21 06:15:25;;;;;;;;;;;;;;;;;;4920037;29;20017;-86
2023/03/21 06:17:50;;;;;;;;;;;;;;;;;;4920612;29;20004;-87
2023/03/21 06:20:16;;;;;;;;;;;;;;;;;;4921327;29;19922;-87
2023/03/21 06:22:41;;;;;;;;;;;;;;;;;;4921550;29;20004;-87
2023/03/21 06:25:06;;;;;;;;;;;;;;;;;;4920627;29;19923;-88
2023/03/21 06:27:31;;;;;;;;;;;;;;;;;;4923841;29;19915;-86
2023/03/21 06:29:57;;;;;;;;;;;;;;;;;;4933117;29;19930;-86
2023/03/21 06:32:22;;;;;;;;;;;;;;;;;;4935523;29;20512;-86
2023/03/21 06:34:47;;;;;;;;;;;;;;;;;;4919795;29;19927;-87
2023/03/21 06:37:12;;;;;;;;;;;;;;;;;;4917622;29;19916;-86
2023/03/21 06:39:37;;;;;;;;;;;;;;;;;;4910847;29;20293;-87
2023/03/21 06:42:02;;;;;;;;;;;;;;;;;;4908336;29;19919;-85
2023/03/21 06:44:28;;;;;;;;;;;;;;;;;;4910201;29;20286;-86
2023/03/21 06:46:53;;;;;;;;;;;;;;;;;;4906268;29;19938;-86
2023/03/21 06:49:18;;;;;;;;;;;;;;;;;;4920766;29;20394;-86
2023/03/21 06:51:44;;;;;;;;;;;;;;;;;;4908478;29;19970;-87
2023/03/21 06:54:09;;;;;;;;;;;;;;;;;;4912504;29;19930;-86
2023/03/21 06:56:34;;;;;;;;;;;;;;;;;;4911276;29;19915;-87
2023/03/21 06:59:00;;;;;;;;;;;;;;;;;;4923313;29;19953;-85
2023/03/21 07:01:26;;;;;;;;;;;;;;;;;;4904352;29;19923;-86
2023/03/21 07:03:52;;;;;;;;;;;;;;;;;;4910266;29;20063;-86
2023/03/21 07:06:17;;;;;;;;;;;;;;;;;;4904150;29;20063;-86
2023/03/21 07:08:42;;;;;;;;;;;;;;;;;;4904541;29;19930;-87
2023/03/21 07:11:08;;;;;;;;;;;;;;;;;;4897334;29;19915;-86
2023/03/21 07:13:33;;;;;;;;;;;;;;;;;;4906639;29;19919;-88
2023/03/21 07:15:58;;;;;;;;;;;;;;;;;;4904277;29;19926;-86
2023/03/21 07:18:23;;;;;;;;;;;;;;;;;;4910647;29;20377;-86
2023/03/21 07:20:51;;;;;;;;;;;;;;;;;;4900762;29;19916;-86
2023/03/21 07:23:17;;;;;;;;;;;;;;;;;;4903566;29;20356;-86
2023/03/21 07:25:42;;;;;;;;;;;;;;;;;;4904453;29;19919;-85
2023/03/21 07:28:08;;;;;;;;;;;;;;;;;;4922005;29;20014;-87
2023/03/21 07:30:33;;;;;;;;;;;;;;;;;;4905437;29;19963;-85
2023/03/21 07:32:58;;;;;;;;;;;;;;;;;;4900181;29;20021;-87
2023/03/21 07:35:24;;;;;;;;;;;;;;;;;;4903259;29;19920;-86
2023/03/21 07:37:49;;;;;;;;;;;;;;;;;;4906747;29;19970;-86
2023/03/21 07:40:15;;;;;;;;;;;;;;;;;;4904711;29;20484;-86
2023/03/21 07:42:41;;;;;;;;;;;;;;;;;;4918132;29;19926;-87
2023/03/21 07:45:06;;;;;;;;;;;;;;;;;;4912399;29;19926;-86
2023/03/21 07:47:31;;;;;;;;;;;;;;;;;;4907358;29;19923;-86
2023/03/21 07:49:57;;;;;;;;;;;;;;;;;;4904892;29;19922;-85
2023/03/21 07:52:22;;;;;;;;;;;;;;;;;;4907577;29;19954;-86
2023/03/21 07:54:47;;;;;;;;;;;;;;;;;;4905165;29;19916;-86
2023/03/21 07:57:12;;;;;;;;;;;;;;;;;;4903236;29;19966;-85
2023/03/21 07:59:38;;;;;;;;;;;;;;;;;;4917083;29;20350;-87
2023/03/21 08:02:03;;;;;;;;;;;;;;;;;;4903628;29;19919;-85
2023/03/21 08:04:28;;;;;;;;;;;;;;;;;;4901435;29;19962;-87
2023/03/21 08:06:53;;;;;;;;;;;;;;;;;;4902013;29;19919;-86
2023/03/21 08:09:18;;;;;;;;;;;;;;;;;;4903758;29;19934;-85
2023/03/21 08:11:44;;;;;;;;;;;;;;;;;;4903899;29;19919;-86
2023/03/21 08:14:09;;;;;;;;;;;;;;;;;;4901789;29;19922;-87
2023/03/21 08:16:35;;;;;;;;;;;;;;;;;;4908470;29;19926;-85
2023/03/21 08:19:00;;;;;;;;;;;;;;;;;;4919505;29;19929;-87
2023/03/21 08:21:26;;;;;;;;;;;;;;;;;;4908934;29;19915;-85
2023/03/21 08:23:51;;;;;;;;;;;;;;;;;;4909794;29;19926;-87
2023/03/21 08:26:17;;;;;;;;;;;;;;;;;;4922589;29;19945;-85
2023/03/21 08:28:42;;;;;;;;;;;;;;;;;;4906493;29;20060;-86
2023/03/21 08:31:07;;;;;;;;;;;;;;;;;;4920226;29;19919;-86
2023/03/21 08:33:32;;;;;;;;;;;;;;;;;;4906365;29;20119;-86
2023/03/21 08:35:57;;;;;;;;;;;;;;;;;;4901719;29;20386;-87
2023/03/21 08:38:23;;;;;;;;;;;;;;;;;;4922145;29;20071;-85
2023/03/21 08:40:48;;;;;;;;;;;;;;;;;;4906591;29;19919;-87
2023/03/21 08:43:13;;;;;;;;;;;;;;;;;;4905278;29;20095;-86
2023/03/21 08:45:39;;;;;;;;;;;;;;;;;;4905423;29;20615;-86
2023/03/21 08:51:14;;;;;;;;;;;;;;;;;;4902672;29;20456;-86
2023/03/21 08:53:42;;;;;;;;;;;;;;;;;;4903612;29;19919;-86
2023/03/21 08:58:51;;;;;;;;;;;;;;;;;;4909048;29;19922;-86
2023/03/21 09:01:16;;;;;;;;;;;;;;;;;;4906734;29;19919;-86
2023/03/21 09:03:42;;;;;;;;;;;;;;;;;;4908950;29;20381;-85
2023/03/21 09:06:09;;;;;;;;;;;;;;;;;;4903162;29;20006;-85
2023/03/21 09:08:35;;;;;;;;;;;;;;;;;;4905663;29;19989;-85
2023/03/21 09:11:00;;;;;;;;;;;;;;;;;;4909675;29;20492;-86
2023/03/21 09:13:25;;;;;;;;;;;;;;;;;;4914380;29;19915;-85
2023/03/21 09:15:51;;;;;;;;;;;;;;;;;;4907609;29;20385;-85
2023/03/21 09:18:20;;;;;;;;;;;;;;;;;;4909113;29;19951;-85
2023/03/21 09:20:46;;;;;;;;;;;;;;;;;;4908524;29;19923;-87
2023/03/21 09:23:12;;;;;;;;;;;;;;;;;;4925201;29;20543;-85
2023/03/21 09:25:37;;;;;;;;;;;;;;;;;;4903183;29;19915;-85
2023/03/21 09:28:05;;;;;;;;;;;;;;;;;;4909346;29;20509;-85
2023/03/21 09:30:31;;;;;;;;;;;;;;;;;;4908577;29;20026;-86
2023/03/21 09:32:56;;;;;;;;;;;;;;;;;;4904231;29;20018;-85
2023/03/21 09:35:23;;;;;;;;;;;;;;;;;;4908561;29;19925;-85
2023/03/21 09:37:48;;;;;;;;;;;;;;;;;;4904875;29;19930;-85
2023/03/21 09:40:14;;;;;;;;;;;;;;;;;;4908564;29;19915;-85
2023/03/21 09:42:40;;;;;;;;;;;;;;;;;;4909235;29;20002;-86
2023/03/21 09:45:07;;;;;;;;;;;;;;;;;;4907604;29;20014;-86
2023/03/21 09:47:33;;;;;;;;;;;;;;;;;;4910819;29;19937;-85
2023/03/21 09:50:11;;;;;;;;;;;;;;;;;;4907027;29;20289;-85
2023/03/21 09:52:57;;;;;;;;;;;;;;;;;;4906605;29;20400;-86
2023/03/21 09:55:33;;;;;;;;;;;;;;;;;;4909813;29;19926;-86
2023/03/21 09:57:59;;;;;;;;;;;;;;;;;;4906387;29;19919;-86
2023/03/21 10:00:26;;;;;;;;;;;;;;;;;;4924660;29;19922;-86
2023/03/21 10:02:52;;;;;;;;;;;;;;;;;;4909207;29;19919;-85
2023/03/21 10:05:18;;;;;;;;;;;;;;;;;;4905072;29;19919;-86
2023/03/21 10:07:43;;;;;;;;;;;;;;;;;;4906966;29;19974;-86
2023/03/21 10:10:09;;;;;;;;;;;;;;;;;;4905955;29;19923;-85
2023/03/21 10:12:34;;;;;;;;;;;;;;;;;;4910564;29;19970;-85
2023/03/21 10:14:59;;;;;;;;;;;;;;;;;;4899000;29;20468;-85
2023/03/21 10:17:24;;;;;;;;;;;;;;;;;;4905108;29;19922;-87
2023/03/21 10:19:50;;;;;;;;;;;;;;;;;;4901370;29;19930;-87
2023/03/21 10:22:15;;;;;;;;;;;;;;;;;;4896806;29;19994;-85
2023/03/21 10:24:40;;;;;;;;;;;;;;;;;;4908008;29;19926;-85
2023/03/21 10:27:05;;;;;;;;;;;;;;;;;;4925009;29;19915;-83
2023/03/21 10:29:30;;;;;;;;;;;;;;;;;;4922648;29;19949;-83
2023/03/21 10:31:55;;;;;;;;;;;;;;;;;;4919787;29;19923;-83
2023/03/21 10:34:21;;;;;;;;;;;;;;;;;;4929736;29;19915;-83
2023/03/21 10:36:46;;;;;;;;;;;;;;;;;;4926122;29;19904;-83
2023/03/21 10:39:11;;;;;;;;;;;;;;;;;;4929569;29;19915;-83
2023/03/21 10:41:39;;;;;;;;;;;;;;;;;;4925079;29;19921;-83
2023/03/21 10:44:04;;;;;;;;;;;;;;;;;;4943727;29;19919;-83
2023/03/21 10:46:30;;;;;;;;;;;;;;;;;;4928534;29;19922;-83
2023/03/21 10:48:55;;;;;;;;;;;;;;;;;;4921381;29;19907;-84
2023/03/21 10:51:20;;;;;;;;;;;;;;;;;;4919294;29;20385;-83
2023/03/21 10:53:46;;;;;;;;;;;;;;;;;;4920170;29;19921;-83
2023/03/21 10:56:11;;;;;;;;;;;;;;;;;;4916155;29;19950;-83
2023/03/21 10:58:38;;;;;;;;;;;;;;;;;;4920382;29;19998;-83
2023/03/21 11:01:03;;;;;;;;;;;;;;;;;;4922085;29;19991;-82
2023/03/21 11:03:30;;;;;;;;;;;;;;;;;;4916808;29;19969;-83
2023/03/21 11:05:56;;;;;;;;;;;;;;;;;;4919969;29;19978;-83
2023/03/21 11:08:21;;;;;;;;;;;;;;;;;;4920287;29;20226;-83
2023/03/21 11:10:46;;;;;;;;;;;;;;;;;;4920558;29;19923;-83
2023/03/21 11:13:11;;;;;;;;;;;;;;;;;;4922245;29;20476;-83
2023/03/21 11:15:36;;;;;;;;;;;;;;;;;;4922761;29;19931;-82
2023/03/21 11:18:02;;;;;;;;;;;;;;;;;;4931877;29;20006;-87
2023/03/21 11:20:27;;;;;;;;;;;;;;;;;;4902011;29;19951;-85
2023/03/21 11:22:52;;;;;;;;;;;;;;;;;;4906464;29;20357;-85
2023/03/21 11:25:17;;;;;;;;;;;;;;;;;;4905418;29;21307;-84
2023/03/21 11:27:43;;;;;;;;;;;;;;;;;;4908615;29;19927;-85
2023/03/21 11:30:08;;;;;;;;;;;;;;;;;;4906504;29;19919;-86
2023/03/21 11:32:33;;;;;;;;;;;;;;;;;;4907990;29;19919;-85
2023/03/21 11:34:58;;;;;;;;;;;;;;;;;;4905818;29;19923;-86
2023/03/21 11:37:25;;;;;;;;;;;;;;;;;;4903157;29;19990;-85
2023/03/21 11:39:50;;;;;;;;;;;;;;;;;;4905379;29;19919;-86
2023/03/21 11:42:15;;;;;;;;;;;;;;;;;;4907284;29;19919;-85
2023/03/21 11:44:40;;;;;;;;;;;;;;;;;;4908447;29;19915;-85
2023/03/21 11:47:06;;;;;;;;;;;;;;;;;;4906740;29;19916;-84
2023/03/21 11:49:31;;;;;;;;;;;;;;;;;;4901028;29;19919;-85
2023/03/21 11:51:56;;;;;;;;;;;;;;;;;;4905662;29;20006;-85
2023/03/21 11:54:21;;;;;;;;;;;;;;;;;;4903059;29;19919;-86
2023/03/21 11:56:46;;;;;;;;;;;;;;;;;;4907491;29;20378;-85
2023/03/21 11:59:12;;;;;;;;;;;;;;;;;;4903500;29;20088;-85
2023/03/21 12:01:37;;;;;;;;;;;;;;;;;;4911938;29;19922;-85
2023/03/21 12:04:03;;;;;;;;;;;;;;;;;;4909820;29;19958;-86
2023/03/21 12:06:28;;;;;;;;;;;;;;;;;;4911162;29;19915;-86
2023/03/21 12:08:53;;;;;;;;;;;;;;;;;;4907704;29;20003;-85
2023/03/21 12:11:18;;;;;;;;;;;;;;;;;;4905568;29;19923;-86
2023/03/21 12:13:44;;;;;;;;;;;;;;;;;;4907852;29;20197;-85
2023/03/21 12:16:09;;;;;;;;;;;;;;;;;;4912554;29;19974;-85
2023/03/21 12:18:34;;;;;;;;;;;;;;;;;;4905760;29;20273;-86
2023/03/21 12:20:59;;;;;;;;;;;;;;;;;;4908384;29;19923;-84
2023/03/21 12:23:25;;;;;;;;;;;;;;;;;;4905109;29;19927;-85
2023/03/21 12:25:53;;;;;;;;;;;;;;;;;;4905769;29;20217;-85
2023/03/21 12:28:18;;;;;;;;;;;;;;;;;;4909101;29;20267;-85
2023/03/21 12:30:44;;;;;;;;;;;;;;;;;;4904734;29;19946;-85
2023/03/21 12:33:09;;;;;;;;;;;;;;;;;;4911582;29;19916;-84
2023/03/21 12:35:34;;;;;;;;;;;;;;;;;;4907635;29;19973;-85
2023/03/21 12:38:00;;;;;;;;;;;;;;;;;;4910998;29;20313;-85
2023/03/21 12:40:26;;;;;;;;;;;;;;;;;;4905983;29;20267;-85
2023/03/21 12:42:51;;;;;;;;;;;;;;;;;;4902295;29;19922;-85
2023/03/21 12:45:16;;;;;;;;;;;;;;;;;;4905170;29;19958;-85
2023/03/21 12:47:41;;;;;;;;;;;;;;;;;;4910998;29;19934;-84
2023/03/21 12:50:06;;;;;;;;;;;;;;;;;;4909615;29;19919;-84
2023/03/21 12:52:32;;;;;;;;;;;;;;;;;;4909039;29;19965;-85
2023/03/21 12:54:57;;;;;;;;;;;;;;;;;;4902544;29;19970;-85
2023/03/21 12:57:22;;;;;;;;;;;;;;;;;;4906645;29;19919;-88
2023/03/21 12:59:47;;;;;;;;;;;;;;;;;;4907048;29;19923;-85
2023/03/21 13:02:12;;;;;;;;;;;;;;;;;;4906509;29;19919;-86
2023/03/21 13:04:38;;;;;;;;;;;;;;;;;;4909607;29;20124;-84
2023/03/21 13:07:03;;;;;;;;;;;;;;;;;;4907974;29;19919;-85
2023/03/21 13:09:28;;;;;;;;;;;;;;;;;;4907096;29;20238;-85
2023/03/21 13:11:53;;;;;;;;;;;;;;;;;;4906409;29;20412;-85
2023/03/21 13:14:19;;;;;;;;;;;;;;;;;;4902194;29;19919;-85
2023/03/21 13:16:44;;;;;;;;;;;;;;;;;;4899031;29;20521;-86
2023/03/21 13:19:09;;;;;;;;;;;;;;;;;;4907902;29;20010;-86
2023/03/21 13:21:34;;;;;;;;;;;;;;;;;;4904698;29;20643;-86
2023/03/21 13:24:00;;;;;;;;;;;;;;;;;;4911686;29;19923;-85
2023/03/21 13:26:26;;;;;;;;;;;;;;;;;;4921691;29;20468;-85
2023/03/21 13:28:51;;;;;;;;;;;;;;;;;;4923114;29;19923;-85
2023/03/21 13:31:16;;;;;;;;;;;;;;;;;;4906487;29;19920;-85
2023/03/21 13:33:44;;;;;;;;;;;;;;;;;;4905118;29;19965;-84
2023/03/21 13:36:09;;;;;;;;;;;;;;;;;;4911111;29;19915;-83
2023/03/21 13:38:35;;;;;;;;;;;;;;;;;;4922743;29;19923;-83
2023/03/21 13:41:00;;;;;;;;;;;;;;;;;;4924939;29;19923;-83
2023/03/21 13:43:25;;;;;;;;;;;;;;;;;;4940168;29;19916;-83
2023/03/21 13:45:50;;;;;;;;;;;;;;;;;;4919383;29;20433;-83
2023/03/21 13:48:16;;;;;;;;;;;;;;;;;;4930519;29;19930;-83
2023/03/21 13:50:41;;;;;;;;;;;;;;;;;;4923471;29;20161;-82
2023/03/21 13:53:07;;;;;;;;;;;;;;;;;;4928781;29;19982;-82
2023/03/21 13:55:33;;;;;;;;;;;;;;;;;;4924871;29;19919;-83
2023/03/21 13:57:58;;;;;;;;;;;;;;;;;;4924091;29;20400;-82
2023/03/21 14:00:24;;;;;;;;;;;;;;;;;;4928677;29;19919;-82
2023/03/21 14:02:49;;;;;;;;;;;;;;;;;;4921175;29;19915;-83
2023/03/21 14:05:14;;;;;;;;;;;;;;;;;;4926511;29;20275;-82
2023/03/21 14:07:40;;;;;;;;;;;;;;;;;;4929845;29;19923;-82
2023/03/21 14:10:05;;;;;;;;;;;;;;;;;;4922728;29;19923;-83
2023/03/21 14:12:30;;;;;;;;;;;;;;;;;;4929310;29;19923;-83
2023/03/21 14:14:55;;;;;;;;;;;;;;;;;;4927286;29;19934;-83
2023/03/21 14:17:21;;;;;;;;;;;;;;;;;;4922342;29;19915;-82
2023/03/21 14:19:46;;;;;;;;;;;;;;;;;;4924451;29;19919;-83
2023/03/21 14:22:11;;;;;;;;;;;;;;;;;;4926233;29;19971;-82
2023/03/21 14:24:36;;;;;;;;;;;;;;;;;;4924405;29;19911;-82
2023/03/21 14:27:03;;;;;;;;;;;;;;;;;;4921756;29;19904;-83
2023/03/21 14:29:28;;;;;;;;;;;;;;;;;;4923857;29;19974;-83
2023/03/21 14:31:54;;;;;;;;;;;;;;;;;;4924889;29;19956;-83
2023/03/21 14:34:19;;;;;;;;;;;;;;;;;;4927309;29;19903;-82
2023/03/21 14:36:45;;;;;;;;;;;;;;;;;;4927281;29;20230;-83
2023/03/21 14:39:10;;;;;;;;;;;;;;;;;;4922309;29;19919;-83
2023/03/21 14:41:35;;;;;;;;;;;;;;;;;;4922350;29;20014;-82
2023/03/21 14:44:00;;;;;;;;;;;;;;;;;;4924674;29;19923;-82
2023/03/21 14:46:25;;;;;;;;;;;;;;;;;;4922553;29;19927;-82
2023/03/21 14:48:51;;;;;;;;;;;;;;;;;;4928386;29;19950;-82
2023/03/21 14:51:16;;;;;;;;;;;;;;;;;;4926424;29;19926;-83
2023/03/21 14:53:41;;;;;;;;;;;;;;;;;;4924472;29;20217;-82
2023/03/21 14:56:06;;;;;;;;;;;;;;;;;;4923117;29;19922;-82
2023/03/21 14:58:31;;;;;;;;;;;;;;;;;;4923198;29;19970;-83
2023/03/21 15:00:57;;;;;;;;;;;;;;;;;;4923870;29;19919;-83
2023/03/21 15:03:22;;;;;;;;;;;;;;;;;;4923856;29;19987;-82
2023/03/21 15:05:47;;;;;;;;;;;;;;;;;;4916051;29;20448;-82
2023/03/21 15:08:13;;;;;;;;;;;;;;;;;;4922199;29;19920;-82
2023/03/21 15:10:39;;;;;;;;;;;;;;;;;;4923523;29;19958;-82
2023/03/21 15:13:04;;;;;;;;;;;;;;;;;;4926693;29;19998;-83
2023/03/21 15:15:29;;;;;;;;;;;;;;;;;;4923965;29;19923;-83
2023/03/21 15:17:55;;;;;;;;;;;;;;;;;;4925948;29;20801;-83
2023/03/21 15:20:20;;;;;;;;;;;;;;;;;;4924690;29;19915;-82
2023/03/21 15:22:45;;;;;;;;;;;;;;;;;;4925438;29;19965;-83
2023/03/21 15:25:10;;;;;;;;;;;;;;;;;;4928538;29;20433;-82
2023/03/21 15:27:35;;;;;;;;;;;;;;;;;;4926728;29;19923;-83
2023/03/21 15:30:01;;;;;;;;;;;;;;;;;;4915143;29;20426;-83
2023/03/21 15:32:26;;;;;;;;;;;;;;;;;;4923978;29;20337;-82
2023/03/21 15:34:51;;;;;;;;;;;;;;;;;;4925493;29;20288;-82
2023/03/21 15:37:16;;;;;;;;;;;;;;;;;;4928758;29;19919;-82
2023/03/21 15:39:42;;;;;;;;;;;;;;;;;;4929962;29;20190;-82
2023/03/21 15:42:07;;;;;;;;;;;;;;;;;;4928651;29;19926;-83
2023/03/21 15:44:32;;;;;;;;;;;;;;;;;;4925518;29;19986;-82
2023/03/21 15:46:58;;;;;;;;;;;;;;;;;;4925780;29;19919;-83
2023/03/21 15:49:24;;;;;;;;;;;;;;;;;;4918327;29;19923;-82
2023/03/21 15:51:49;;;;;;;;;;;;;;;;;;4924266;29;19926;-82
2023/03/21 15:54:14;;;;;;;;;;;;;;;;;;4937912;29;19915;-83
2023/03/21 15:56:41;;;;;;;;;;;;;;;;;;4917533;29;19938;-82
2023/03/21 15:59:06;;;;;;;;;;;;;;;;;;4926918;29;19926;-83
2023/03/21 16:01:33;;;;;;;;;;;;;;;;;;4924628;29;19975;-83
2023/03/21 16:03:58;;;;;;;;;;;;;;;;;;4917429;29;19942;-83
2023/03/21 16:06:26;;;;;;;;;;;;;;;;;;4917252;29;19919;-83
2023/03/21 16:08:52;;;;;;;;;;;;;;;;;;4935857;29;19931;-83
2023/03/21 16:11:17;;;;;;;;;;;;;;;;;;4915824;29;20103;-82
2023/03/21 16:13:42;;;;;;;;;;;;;;;;;;4935935;29;19938;-83
2023/03/21 16:16:07;;;;;;;;;;;;;;;;;;4921161;29;20420;-82
2023/03/21 16:18:33;;;;;;;;;;;;;;;;;;4922762;29;19974;-83
2023/03/21 16:20:58;;;;;;;;;;;;;;;;;;4919741;29;19929;-83
2023/03/21 16:23:23;;;;;;;;;;;;;;;;;;4928565;29;19915;-82
2023/03/21 16:25:54;;;;;;;;;;;;;;;;;;4915665;29;19958;-85
2023/03/21 16:28:19;;;;;;;;;;;;;;;;;;4906989;29;19950;-85
2023/03/21 16:30:45;;;;;;;;;;;;;;;;;;4905052;29;20026;-85
2023/03/21 16:33:11;;;;;;;;;;;;;;;;;;4906210;29;19919;-85
2023/03/21 16:35:36;;;;;;;;;;;;;;;;;;4909752;29;19922;-85
2023/03/21 16:38:03;;;;;;;;;;;;;;;;;;4910086;29;19919;-85
2023/03/21 16:40:29;;;;;;;;;;;;;;;;;;4921932;29;19911;-85